sensor_id;sensor_type;location;lat;lon;timestamp;pressure;altitude;pressure_sealevel;temperature;humidity
50590;BME280;36547;50.514;30.840;2023-05-10T00:00:45;100970.05;;;8.67;47.33
50590;BME280;36547;50.514;30.840;2023-05-10T00:01:47;100969.17;;;8.66;47.27
50590;BME280;36547;50.514;30.840;2023-05-10T00:02:50;100970.87;;;8.69;47.10
50590;BME280;36547;50.514;30.840;2023-05-10T00:03:52;100965.57;;;8.69;46.99
50590;BME280;36547;50.514;30.840;2023-05-10T00:04:55;100968.22;;;8.69;47.19
50590;BME280;36547;50.514;30.840;2023-05-10T00:05:57;100969.05;;;8.71;47.10
50590;BME280;36547;50.514;30.840;2023-05-10T00:07:00;100967.39;;;8.67;47.03
50590;BME280;36547;50.514;30.840;2023-05-10T00:08:02;100967.39;;;8.67;47.14
50590;BME280;36547;50.514;30.840;2023-05-10T00:09:04;100964.74;;;8.67;47.03
50590;BME280;36547;50.514;30.840;2023-05-10T00:10:07;100970.05;;;8.67;47.27
50590;BME280;36547;50.514;30.840;2023-05-10T00:11:09;100962.92;;;8.69;47.18
50590;BME280;36547;50.514;30.840;2023-05-10T00:12:12;100968.22;;;8.69;47.32
50590;BME280;36547;50.514;30.840;2023-05-10T00:13:14;100967.39;;;8.67;46.99
50590;BME280;36547;50.514;30.840;2023-05-10T00:14:16;100963.01;;;8.66;47.15
50590;BME280;36547;50.514;30.840;2023-05-10T00:15:19;100961.19;;;8.68;47.43
50590;BME280;36547;50.514;30.840;2023-05-10T00:16:22;100963.83;;;8.68;47.19
50590;BME280;36547;50.514;30.840;2023-05-10T00:17:24;100967.30;;;8.70;47.27
50590;BME280;36547;50.514;30.840;2023-05-10T00:18:27;100962.00;;;8.70;47.18
50590;BME280;36547;50.514;30.840;2023-05-10T00:19:30;100961.19;;;8.68;47.35
50590;BME280;36547;50.514;30.840;2023-05-10T00:20:32;100956.80;;;8.67;47.42
50590;BME280;36547;50.514;30.840;2023-05-10T00:21:34;100966.52;;;8.66;47.29
50590;BME280;36547;50.514;30.840;2023-05-10T00:22:37;100968.30;;;8.66;47.47
50590;BME280;36547;50.514;30.840;2023-05-10T00:23:40;100963.01;;;8.66;47.45
50590;BME280;36547;50.514;30.840;2023-05-10T00:24:42;100971.83;;;8.66;47.32
50590;BME280;36547;50.514;30.840;2023-05-10T00:25:45;100964.83;;;8.65;47.35
50590;BME280;36547;50.514;30.840;2023-05-10T00:26:49;100964.86;;;8.64;47.18
50590;BME280;36547;50.514;30.840;2023-05-10T00:27:51;100962.92;;;8.69;47.18
50590;BME280;36547;50.514;30.840;2023-05-10T00:28:53;100966.48;;;8.68;47.49
50590;BME280;36547;50.514;30.840;2023-05-10T00:29:55;100968.22;;;8.69;47.97
50590;BME280;36547;50.514;30.840;2023-05-10T00:30:58;100959.36;;;8.70;47.70
50590;BME280;36547;50.514;30.840;2023-05-10T00:32:00;100962.05;;;8.68;47.72
50590;BME280;36547;50.514;30.840;2023-05-10T00:33:02;100958.48;;;8.69;47.18
50590;BME280;36547;50.514;30.840;2023-05-10T00:34:05;100959.31;;;8.71;47.06
50590;BME280;36547;50.514;30.840;2023-05-10T00:35:08;100961.92;;;8.73;47.24
50590;BME280;36547;50.514;30.840;2023-05-10T00:36:11;100962.87;;;8.70;47.32
50590;BME280;36547;50.514;30.840;2023-05-10T00:37:13;100965.48;;;8.72;47.63
50590;BME280;36547;50.514;30.840;2023-05-10T00:38:16;100962.74;;;8.75;47.48
50590;BME280;36547;50.514;30.840;2023-05-10T00:39:18;100961.88;;;8.74;47.59
50590;BME280;36547;50.514;30.840;2023-05-10T00:40:20;100962.74;;;8.75;47.53
50590;BME280;36547;50.514;30.840;2023-05-10T00:41:25;100961.83;;;8.76;47.58
50590;BME280;36547;50.514;30.840;2023-05-10T00:42:27;100956.48;;;8.77;47.57
50590;BME280;36547;50.514;30.840;2023-05-10T00:43:30;100956.53;;;8.76;47.54
50590;BME280;36547;50.514;30.840;2023-05-10T00:44:32;100962.74;;;8.75;47.31
50590;BME280;36547;50.514;30.840;2023-05-10T00:45:35;100953.02;;;8.75;47.43
50590;BME280;36547;50.514;30.840;2023-05-10T00:46:39;100963.52;;;8.78;47.21
50590;BME280;36547;50.514;30.840;2023-05-10T00:47:41;100968.78;;;8.80;47.07
50590;BME280;36547;50.514;30.840;2023-05-10T00:48:44;100959.13;;;8.77;47.23
50590;BME280;36547;50.514;30.840;2023-05-10T00:49:47;100958.22;;;8.78;47.41
50590;BME280;36547;50.514;30.840;2023-05-10T00:50:49;100962.53;;;8.81;47.19
50590;BME280;36547;50.514;30.840;2023-05-10T00:51:51;100961.62;;;8.82;47.05
50590;BME280;36547;50.514;30.840;2023-05-10T00:52:55;100958.97;;;8.82;46.88
50590;BME280;36547;50.514;30.840;2023-05-10T00:53:58;100956.31;;;8.82;47.26
50590;BME280;36547;50.514;30.840;2023-05-10T00:55:01;100959.84;;;8.82;47.55
50590;BME280;36547;50.514;30.840;2023-05-10T00:56:04;100964.31;;;8.80;47.47
50590;BME280;36547;50.514;30.840;2023-05-10T00:57:06;100961.62;;;8.82;47.43
50590;BME280;36547;50.514;30.840;2023-05-10T00:58:08;100956.36;;;8.80;47.11
50590;BME280;36547;50.514;30.840;2023-05-10T00:59:11;100957.23;;;8.81;46.78
50590;BME280;36547;50.514;30.840;2023-05-10T01:00:14;100958.09;;;8.81;46.87
50590;BME280;36547;50.514;30.840;2023-05-10T01:01:17;100964.27;;;8.82;46.81
50590;BME280;36547;50.514;30.840;2023-05-10T01:02:20;100956.36;;;8.80;46.67
50590;BME280;36547;50.514;30.840;2023-05-10T01:03:23;100965.18;;;8.81;46.49
50590;BME280;36547;50.514;30.840;2023-05-10T01:04:25;100964.27;;;8.82;46.83
50590;BME280;36547;50.514;30.840;2023-05-10T01:05:27;100966.88;;;8.83;46.69
50590;BME280;36547;50.514;30.840;2023-05-10T01:06:30;100962.44;;;8.84;46.59
50590;BME280;36547;50.514;30.840;2023-05-10T01:07:33;100964.17;;;8.85;46.60
50590;BME280;36547;50.514;30.840;2023-05-10T01:08:36;100961.58;;;8.83;46.80
50590;BME280;36547;50.514;30.840;2023-05-10T01:09:38;100962.44;;;8.84;46.89
50590;BME280;36547;50.514;30.840;2023-05-10T01:10:42;100958.97;;;8.82;46.86
50590;BME280;36547;50.514;30.840;2023-05-10T01:11:45;100959.84;;;8.82;46.95
50590;BME280;36547;50.514;30.840;2023-05-10T01:12:48;100962.53;;;8.81;46.74
50590;BME280;36547;50.514;30.840;2023-05-10T01:13:54;100966.00;;;8.83;46.77
50590;BME280;36547;50.514;30.840;2023-05-10T01:14:57;100960.70;;;8.83;46.68
50590;BME280;36547;50.514;30.840;2023-05-10T01:15:59;100963.48;;;8.80;46.87
50590;BME280;36547;50.514;30.840;2023-05-10T01:17:03;100965.09;;;8.84;46.75
50590;BME280;36547;50.514;30.840;2023-05-10T01:18:08;100964.27;;;8.82;46.80
50590;BME280;36547;50.514;30.840;2023-05-10T01:19:19;100963.36;;;8.83;46.79
50590;BME280;36547;50.514;30.840;2023-05-10T01:20:24;100955.36;;;8.84;46.88
50590;BME280;36547;50.514;30.840;2023-05-10T01:21:33;100966.92;;;8.82;46.85
50590;BME280;36547;50.514;30.840;2023-05-10T01:25:31;100957.23;;;8.81;47.08
50590;BME280;36547;50.514;30.840;2023-05-10T01:27:13;100957.23;;;8.81;47.24
50590;BME280;36547;50.514;30.840;2023-05-10T01:33:18;100955.31;;;8.86;47.17
50590;BME280;36547;50.514;30.840;2023-05-10T01:34:23;100952.66;;;8.86;47.14
50590;BME280;36547;50.514;30.840;2023-05-10T01:35:35;100950.11;;;8.83;47.22
50590;BME280;36547;50.514;30.840;2023-05-10T01:39:54;100949.36;;;8.79;47.11
50590;BME280;36547;50.514;30.840;2023-05-10T01:42:35;100947.14;;;8.94;46.92
50590;BME280;36547;50.514;30.840;2023-05-10T01:43:45;100948.58;;;8.76;47.33
50590;BME280;36547;50.514;30.840;2023-05-10T01:45:18;100945.02;;;8.77;47.48
50590;BME280;36547;50.514;30.840;2023-05-10T01:46:28;100950.31;;;8.77;47.51
50590;BME280;36547;50.514;30.840;2023-05-10T01:47:43;100943.66;;;8.92;47.40
50590;BME280;36547;50.514;30.840;2023-05-10T01:48:48;100955.62;;;8.77;47.66
50590;BME280;36547;50.514;30.840;2023-05-10T01:49:54;100957.35;;;8.78;47.75
50590;BME280;36547;50.514;30.840;2023-05-10T01:50:58;100952.97;;;8.77;47.78
50590;BME280;36547;50.514;30.840;2023-05-10T01:52:12;100952.05;;;8.78;47.65
50590;BME280;36547;50.514;30.840;2023-05-10T01:53:18;100955.62;;;8.77;47.80
50590;BME280;36547;50.514;30.840;2023-05-10T01:54:22;100950.36;;;8.75;47.62
50590;BME280;36547;50.514;30.840;2023-05-10T01:55:32;100950.27;;;8.78;47.59
50590;BME280;36547;50.514;30.840;2023-05-10T01:56:35;100949.41;;;8.78;47.57
50590;BME280;36547;50.514;30.840;2023-05-10T01:57:42;100944.15;;;8.76;47.71
50590;BME280;36547;50.514;30.840;2023-05-10T01:58:47;100944.11;;;8.78;47.45
50590;BME280;36547;50.514;30.840;2023-05-10T01:59:52;100947.67;;;8.77;47.76
50590;BME280;36547;50.514;30.840;2023-05-10T02:00:55;100952.05;;;8.78;47.45
50590;BME280;36547;50.514;30.840;2023-05-10T02:02:01;100950.31;;;8.77;47.49
50590;BME280;36547;50.514;30.840;2023-05-10T02:03:06;100945.02;;;8.77;47.51
50590;BME280;36547;50.514;30.840;2023-05-10T02:04:14;100940.62;;;8.76;47.75
50590;BME280;36547;50.514;30.840;2023-05-10T02:05:18;100946.75;;;8.78;47.56
50590;BME280;36547;50.514;30.840;2023-05-10T02:06:23;100946.84;;;8.75;47.39
50590;BME280;36547;50.514;30.840;2023-05-10T02:07:28;100947.80;;;8.72;47.78
50590;BME280;36547;50.514;30.840;2023-05-10T02:08:31;100945.11;;;8.74;47.76
50590;BME280;36547;50.514;30.840;2023-05-10T02:09:36;100946.02;;;8.73;47.76
50590;BME280;36547;50.514;30.840;2023-05-10T02:10:41;100949.58;;;8.72;47.62
50590;BME280;36547;50.514;30.840;2023-05-10T02:11:45;100943.38;;;8.73;47.68
50590;BME280;36547;50.514;30.840;2023-05-10T02:12:50;100942.50;;;8.72;47.71
50590;BME280;36547;50.514;30.840;2023-05-10T02:13:55;100946.89;;;8.73;47.69
50590;BME280;36547;50.514;30.840;2023-05-10T02:15:02;100946.93;;;8.72;47.82
50590;BME280;36547;50.514;30.840;2023-05-10T02:16:07;100946.93;;;8.72;47.65
50590;BME280;36547;50.514;30.840;2023-05-10T02:17:10;100953.09;;;8.72;47.56
50590;BME280;36547;50.514;30.840;2023-05-10T02:18:14;100950.41;;;8.74;47.51
50590;BME280;36547;50.514;30.840;2023-05-10T02:19:18;100946.98;;;8.70;47.71
50590;BME280;36547;50.514;30.840;2023-05-10T02:20:24;100952.32;;;8.69;47.92
50590;BME280;36547;50.514;30.840;2023-05-10T02:21:28;100952.23;;;8.72;47.82
50590;BME280;36547;50.514;30.840;2023-05-10T02:22:32;100947.80;;;8.72;47.69
50590;BME280;36547;50.514;30.840;2023-05-10T02:23:36;100951.45;;;8.68;47.93
50590;BME280;36547;50.514;30.840;2023-05-10T02:24:40;100954.10;;;8.68;48.11
50590;BME280;36547;50.514;30.840;2023-05-10T02:25:44;100949.67;;;8.69;48.02
50590;BME280;36547;50.514;30.840;2023-05-10T02:26:48;100949.72;;;8.67;47.90
50590;BME280;36547;50.514;30.840;2023-05-10T02:27:53;100956.75;;;8.68;47.93
50590;BME280;36547;50.514;30.840;2023-05-10T02:28:57;100947.06;;;8.67;48.02
50590;BME280;36547;50.514;30.840;2023-05-10T02:30:00;100948.84;;;8.67;48.26
50590;BME280;36547;50.514;30.840;2023-05-10T02:31:05;100950.62;;;8.66;48.09
50590;BME280;36547;50.514;30.840;2023-05-10T02:32:08;100952.37;;;8.67;48.06
50590;BME280;36547;50.514;30.840;2023-05-10T02:33:13;100954.27;;;8.64;47.99
50590;BME280;36547;50.514;30.840;2023-05-10T02:34:17;100956.09;;;8.62;48.09
50590;BME280;36547;50.514;30.840;2023-05-10T02:35:21;100950.84;;;8.60;48.23
50590;BME280;36547;50.514;30.840;2023-05-10T02:36:26;100954.27;;;8.64;48.04
50590;BME280;36547;50.514;30.840;2023-05-10T02:37:28;100957.83;;;8.63;47.94
50590;BME280;36547;50.514;30.840;2023-05-10T02:38:33;100947.27;;;8.61;48.00
50590;BME280;36547;50.514;30.840;2023-05-10T02:39:37;100947.31;;;8.60;48.15
50590;BME280;36547;50.514;30.840;2023-05-10T02:40:41;100949.97;;;8.60;48.33
50590;BME280;36547;50.514;30.840;2023-05-10T02:41:46;100952.62;;;8.60;48.24
50590;BME280;36547;50.514;30.840;2023-05-10T02:42:52;100947.31;;;8.60;48.32
50590;BME280;36547;50.514;30.840;2023-05-10T02:43:59;100944.72;;;8.58;48.10
50590;BME280;36547;50.514;30.840;2023-05-10T02:46:14;100946.16;;;8.68;48.55
50590;BME280;36547;50.514;30.840;2023-05-10T02:47:18;100957.22;;;8.53;48.72
50590;BME280;36547;50.514;30.840;2023-05-10T02:48:21;100951.05;;;8.53;48.50
50590;BME280;36547;50.514;30.840;2023-05-10T02:49:23;100956.27;;;8.56;48.46
50590;BME280;36547;50.514;30.840;2023-05-10T02:50:30;100946.50;;;8.58;48.46
50590;BME280;36547;50.514;30.840;2023-05-10T02:51:37;100945.58;;;8.59;48.50
50590;BME280;36547;50.514;30.840;2023-05-10T02:52:46;100950.09;;;8.55;48.47
50590;BME280;36547;50.514;30.840;2023-05-10T02:53:49;100951.84;;;8.56;48.26
50590;BME280;36547;50.514;30.840;2023-05-10T02:54:55;100952.79;;;8.54;48.13
50590;BME280;36547;50.514;30.840;2023-05-10T02:56:04;100951.92;;;8.53;48.46
50590;BME280;36547;50.514;30.840;2023-05-10T02:57:07;100950.09;;;8.55;48.70
50590;BME280;36547;50.514;30.840;2023-05-10T02:58:11;100953.61;;;8.56;48.56
50590;BME280;36547;50.514;30.840;2023-05-10T02:59:15;100950.09;;;8.55;48.35
50590;BME280;36547;50.514;30.840;2023-05-10T03:00:17;100950.09;;;8.55;48.28
50590;BME280;36547;50.514;30.840;2023-05-10T03:01:21;100959.78;;;8.56;48.36
50590;BME280;36547;50.514;30.840;2023-05-10T03:02:24;100951.84;;;8.56;47.91
50590;BME280;36547;50.514;30.840;2023-05-10T03:03:27;100951.05;;;8.53;47.90
50590;BME280;36547;50.514;30.840;2023-05-10T03:04:29;100960.86;;;8.50;48.12
50590;BME280;36547;50.514;30.840;2023-05-10T03:05:33;100954.61;;;8.51;48.34
50590;BME280;36547;50.514;30.840;2023-05-10T03:06:36;100955.56;;;8.50;48.39
50590;BME280;36547;50.514;30.840;2023-05-10T03:07:40;100957.27;;;8.51;48.31
50590;BME280;36547;50.514;30.840;2023-05-10T03:08:43;100954.61;;;8.51;48.69
50590;BME280;36547;50.514;30.840;2023-05-10T03:09:48;100965.28;;;8.50;48.36
50590;BME280;36547;50.514;30.840;2023-05-10T03:12:15;100959.12;;;8.49;48.24
50590;BME280;36547;50.514;30.840;2023-05-10T03:13:32;100957.27;;;8.51;47.99
50590;BME280;36547;50.514;30.840;2023-05-10T03:14:59;100955.48;;;8.52;48.05
50590;BME280;36547;50.514;30.840;2023-05-10T03:16:24;100954.69;;;8.50;48.15
50590;BME280;36547;50.514;30.840;2023-05-10T03:17:47;100955.56;;;8.50;48.10
50590;BME280;36547;50.514;30.840;2023-05-10T03:19:02;100960.78;;;8.52;48.76
50590;BME280;36547;50.514;30.840;2023-05-10T03:20:06;100961.65;;;8.53;48.35
50590;BME280;36547;50.514;30.840;2023-05-10T03:21:11;100959.00;;;8.53;48.75
50590;BME280;36547;50.514;30.840;2023-05-10T03:22:21;100959.00;;;8.53;48.65
50590;BME280;36547;50.514;30.840;2023-05-10T03:24:35;100966.16;;;8.50;48.43
50590;BME280;36547;50.514;30.840;2023-05-10T03:25:39;100964.50;;;8.46;48.64
50590;BME280;36547;50.514;30.840;2023-05-10T03:26:44;100961.86;;;8.46;48.63
50590;BME280;36547;50.514;30.840;2023-05-10T03:27:49;100960.08;;;8.47;48.55
50590;BME280;36547;50.514;30.840;2023-05-10T03:28:54;100960.94;;;8.47;48.65
50590;BME280;36547;50.514;30.840;2023-05-10T03:29:57;100966.23;;;8.47;48.55
50590;BME280;36547;50.514;30.840;2023-05-10T03:31:00;100965.33;;;8.48;48.61
50590;BME280;36547;50.514;30.840;2023-05-10T03:32:05;100957.42;;;8.47;48.43
50590;BME280;36547;50.514;30.840;2023-05-10T03:33:07;100962.77;;;8.45;48.64
50590;BME280;36547;50.514;30.840;2023-05-10T03:34:12;100965.33;;;8.48;48.70
50590;BME280;36547;50.514;30.840;2023-05-10T03:35:15;100963.50;;;8.50;48.69
50590;BME280;36547;50.514;30.840;2023-05-10T03:36:18;100960.03;;;8.48;48.86
50590;BME280;36547;50.514;30.840;2023-05-10T03:37:21;100961.77;;;8.49;48.92
50590;BME280;36547;50.514;30.840;2023-05-10T03:38:24;100961.77;;;8.49;48.96
50590;BME280;36547;50.514;30.840;2023-05-10T03:39:26;100961.73;;;8.51;49.02
50590;BME280;36547;50.514;30.840;2023-05-10T03:40:30;100963.50;;;8.50;49.06
50590;BME280;36547;50.514;30.840;2023-05-10T03:41:32;100959.91;;;8.51;48.88
50590;BME280;36547;50.514;30.840;2023-05-10T03:42:35;100964.38;;;8.51;48.85
50590;BME280;36547;50.514;30.840;2023-05-10T03:43:38;100961.65;;;8.53;48.90
50590;BME280;36547;50.514;30.840;2023-05-10T03:44:40;100965.16;;;8.53;48.76
50590;BME280;36547;50.514;30.840;2023-05-10T03:45:43;100959.91;;;8.51;49.13
50590;BME280;36547;50.514;30.840;2023-05-10T03:46:46;100959.00;;;8.53;49.22
50590;BME280;36547;50.514;30.840;2023-05-10T03:47:48;100968.69;;;8.54;49.32
50590;BME280;36547;50.514;30.840;2023-05-10T03:48:51;100959.83;;;8.55;49.23
50590;BME280;36547;50.514;30.840;2023-05-10T03:49:53;100965.03;;;8.58;49.60
50590;BME280;36547;50.514;30.840;2023-05-10T03:50:56;100964.08;;;8.60;49.71
50590;BME280;36547;50.514;30.840;2023-05-10T03:51:58;100964.08;;;8.60;49.00
50590;BME280;36547;50.514;30.840;2023-05-10T03:53:01;100964.91;;;8.62;49.41
50590;BME280;36547;50.514;30.840;2023-05-10T03:54:04;100964.00;;;8.63;49.28
50590;BME280;36547;50.514;30.840;2023-05-10T03:55:06;100965.61;;;8.67;49.14
50590;BME280;36547;50.514;30.840;2023-05-10T03:56:10;100966.48;;;8.68;49.39
50590;BME280;36547;50.514;30.840;2023-05-10T03:57:13;100966.39;;;8.71;49.58
50590;BME280;36547;50.514;30.840;2023-05-10T03:58:15;100961.88;;;8.74;49.43
50590;BME280;36547;50.514;30.840;2023-05-10T03:59:18;100962.74;;;8.75;49.00
50590;BME280;36547;50.514;30.840;2023-05-10T04:00:20;100967.09;;;8.77;48.95
50590;BME280;36547;50.514;30.840;2023-05-10T04:01:24;100971.52;;;8.77;48.92
50590;BME280;36547;50.514;30.840;2023-05-10T04:02:27;100962.66;;;8.78;48.88
50590;BME280;36547;50.514;30.840;2023-05-10T04:03:30;100963.48;;;8.80;49.11
50590;BME280;36547;50.514;30.840;2023-05-10T04:04:33;100967.91;;;8.79;48.97
50590;BME280;36547;50.514;30.840;2023-05-10T04:05:35;100965.18;;;8.81;48.77
50590;BME280;36547;50.514;30.840;2023-05-10T04:06:39;100969.56;;;8.82;48.65
50590;BME280;36547;50.514;30.840;2023-05-10T04:07:41;100960.83;;;8.80;49.31
50590;BME280;36547;50.514;30.840;2023-05-10T04:08:43;100966.92;;;8.82;49.06
50590;BME280;36547;50.514;30.840;2023-05-10T04:09:46;100965.14;;;8.82;49.35
50590;BME280;36547;50.514;30.840;2023-05-10T04:10:49;100971.27;;;8.84;49.08
50590;BME280;36547;50.514;30.840;2023-05-10T04:11:51;100967.70;;;8.85;48.78
50590;BME280;36547;50.514;30.840;2023-05-10T04:12:53;100970.30;;;8.87;48.74
50590;BME280;36547;50.514;30.840;2023-05-10T04:13:56;100966.65;;;8.91;48.98
50590;BME280;36547;50.514;30.840;2023-05-10T04:14:58;100966.61;;;8.93;48.93
50590;BME280;36547;50.514;30.840;2023-05-10T04:16:00;100973.56;;;8.95;48.85
50590;BME280;36547;50.514;30.840;2023-05-10T04:17:03;100974.39;;;8.97;48.87
50590;BME280;36547;50.514;30.840;2023-05-10T04:18:05;100975.26;;;8.98;48.99
50590;BME280;36547;50.514;30.840;2023-05-10T04:19:09;100974.30;;;9.00;48.90
50590;BME280;36547;50.514;30.840;2023-05-10T04:20:12;100976.03;;;9.01;48.96
50590;BME280;36547;50.514;30.840;2023-05-10T04:21:15;100983.08;;;9.02;48.69
50590;BME280;36547;50.514;30.840;2023-05-10T04:22:17;100976.95;;;9.00;48.41
50590;BME280;36547;50.514;30.840;2023-05-10T04:23:21;100978.69;;;9.01;48.58
50590;BME280;36547;50.514;30.840;2023-05-10T04:24:25;100978.73;;;9.00;48.92
50590;BME280;36547;50.514;30.840;2023-05-10T04:25:27;100969.91;;;8.99;48.86
50590;BME280;36547;50.514;30.840;2023-05-10T04:26:30;100973.34;;;9.03;49.05
50590;BME280;36547;50.514;30.840;2023-05-10T04:27:32;100975.94;;;9.04;49.23
50590;BME280;36547;50.514;30.840;2023-05-10T04:28:35;100980.28;;;9.07;49.44
50590;BME280;36547;50.514;30.840;2023-05-10T04:29:37;100977.59;;;9.08;49.46
50590;BME280;36547;50.514;30.840;2023-05-10T04:30:39;100973.98;;;9.09;49.44
50590;BME280;36547;50.514;30.840;2023-05-10T04:31:42;100977.46;;;9.11;48.94
50590;BME280;36547;50.514;30.840;2023-05-10T04:32:44;100980.94;;;9.13;49.41
50590;BME280;36547;50.514;30.840;2023-05-10T04:33:46;100978.19;;;9.16;49.30
50590;BME280;36547;50.514;30.840;2023-05-10T04:34:50;100976.36;;;9.18;48.99
50590;BME280;36547;50.514;30.840;2023-05-10T04:35:52;100975.35;;;9.23;49.27
50590;BME280;36547;50.514;30.840;2023-05-10T04:36:54;100973.48;;;9.25;49.04
50590;BME280;36547;50.514;30.840;2023-05-10T04:37:57;100977.88;;;9.26;48.83
50590;BME280;36547;50.514;30.840;2023-05-10T04:38:59;100977.83;;;9.27;48.60
50590;BME280;36547;50.514;30.840;2023-05-10T04:40:02;100976.96;;;9.27;48.35
50590;BME280;36547;50.514;30.840;2023-05-10T04:41:06;100977.83;;;9.27;48.43
50590;BME280;36547;50.514;30.840;2023-05-10T04:42:09;100980.44;;;9.29;48.57
50590;BME280;36547;50.514;30.840;2023-05-10T04:43:11;100975.91;;;9.32;48.53
50590;BME280;36547;50.514;30.840;2023-05-10T04:44:14;100984.73;;;9.33;48.45
50590;BME280;36547;50.514;30.840;2023-05-10T04:45:16;100983.81;;;9.34;48.50
50590;BME280;36547;50.514;30.840;2023-05-10T04:46:19;100984.73;;;9.33;48.26
50590;BME280;36547;50.514;30.840;2023-05-10T04:47:21;100987.38;;;9.33;48.22
50590;BME280;36547;50.514;30.840;2023-05-10T04:48:23;100988.30;;;9.32;48.48
50590;BME280;36547;50.514;30.840;2023-05-10T04:49:26;100982.17;;;9.30;48.46
50590;BME280;36547;50.514;30.840;2023-05-10T04:50:28;100990.22;;;9.27;48.49
50590;BME280;36547;50.514;30.840;2023-05-10T04:51:30;100984.88;;;9.28;49.02
50590;BME280;36547;50.514;30.840;2023-05-10T04:52:33;100986.61;;;9.29;49.00
50590;BME280;36547;50.514;30.840;2023-05-10T04:53:35;100990.13;;;9.30;48.56
50590;BME280;36547;50.514;30.840;2023-05-10T04:54:37;100986.56;;;9.31;48.90
50590;BME280;36547;50.514;30.840;2023-05-10T04:55:39;100988.39;;;9.29;49.08
50590;BME280;36547;50.514;30.840;2023-05-10T04:56:41;100990.13;;;9.30;48.91
50590;BME280;36547;50.514;30.840;2023-05-10T04:57:44;100984.77;;;9.31;49.17
50590;BME280;36547;50.514;30.840;2023-05-10T04:58:46;100989.22;;;9.31;49.37
50590;BME280;36547;50.514;30.840;2023-05-10T04:59:48;100987.48;;;9.30;48.92
50590;BME280;36547;50.514;30.840;2023-05-10T05:00:53;100983.86;;;9.32;49.17
50590;BME280;36547;50.514;30.840;2023-05-10T05:01:55;100989.22;;;9.31;48.86
50590;BME280;36547;50.514;30.840;2023-05-10T05:02:58;100988.34;;;9.30;48.97
50590;BME280;36547;50.514;30.840;2023-05-10T05:04:01;100987.48;;;9.30;48.97
50590;BME280;36547;50.514;30.840;2023-05-10T05:05:03;100985.64;;;9.32;48.91
50590;BME280;36547;50.514;30.840;2023-05-10T05:06:06;100990.95;;;9.32;48.76
50590;BME280;36547;50.514;30.840;2023-05-10T05:07:08;100989.22;;;9.31;48.92
50590;BME280;36547;50.514;30.840;2023-05-10T05:08:11;100990.95;;;9.32;49.01
50590;BME280;36547;50.514;30.840;2023-05-10T05:09:13;100983.91;;;9.31;48.67
50590;BME280;36547;50.514;30.840;2023-05-10T05:10:16;100991.81;;;9.32;49.13
50590;BME280;36547;50.514;30.840;2023-05-10T05:11:19;100990.91;;;9.33;49.13
50590;BME280;36547;50.514;30.840;2023-05-10T05:12:21;100989.94;;;9.36;49.46
50590;BME280;36547;50.514;30.840;2023-05-10T05:13:24;100989.02;;;9.37;49.04
50590;BME280;36547;50.514;30.840;2023-05-10T05:14:27;100992.46;;;9.39;49.11
50590;BME280;36547;50.514;30.840;2023-05-10T05:15:30;100988.89;;;9.40;49.44
50590;BME280;36547;50.514;30.840;2023-05-10T05:16:33;100988.80;;;9.43;49.35
50590;BME280;36547;50.514;30.840;2023-05-10T05:17:35;100984.31;;;9.45;49.12
50590;BME280;36547;50.514;30.840;2023-05-10T05:18:38;100988.70;;;9.46;48.58
50590;BME280;36547;50.514;30.840;2023-05-10T05:19:41;100992.17;;;9.48;48.50
50590;BME280;36547;50.514;30.840;2023-05-10T05:20:43;100991.21;;;9.50;48.45
50590;BME280;36547;50.514;30.840;2023-05-10T05:21:46;100991.16;;;9.52;48.38
50590;BME280;36547;50.514;30.840;2023-05-10T05:22:48;100988.33;;;9.56;48.21
50590;BME280;36547;50.514;30.840;2023-05-10T05:23:51;100993.59;;;9.58;48.23
50590;BME280;36547;50.514;30.840;2023-05-10T05:24:57;100990.02;;;9.59;48.33
50590;BME280;36547;50.514;30.840;2023-05-10T05:25:59;100985.48;;;9.63;48.70
50590;BME280;36547;50.514;30.840;2023-05-10T05:27:02;100982.78;;;9.64;48.54
50590;BME280;36547;50.514;30.840;2023-05-10T05:28:05;100984.43;;;9.67;48.65
50590;BME280;36547;50.514;30.840;2023-05-10T05:29:07;100982.55;;;9.70;48.25
50590;BME280;36547;50.514;30.840;2023-05-10T05:30:10;100985.15;;;9.72;48.11
50590;BME280;36547;50.514;30.840;2023-05-10T05:31:13;100985.05;;;9.75;48.77
50590;BME280;36547;50.514;30.840;2023-05-10T05:32:17;100987.66;;;9.76;48.83
50590;BME280;36547;50.514;30.840;2023-05-10T05:33:19;100984.90;;;9.79;49.31
50590;BME280;36547;50.514;30.840;2023-05-10T05:34:21;100982.11;;;9.82;49.43
50590;BME280;36547;50.514;30.840;2023-05-10T05:35:24;100975.78;;;9.86;49.53
50590;BME280;36547;50.514;30.840;2023-05-10T05:36:26;100977.47;;;9.89;49.04
50590;BME280;36547;50.514;30.840;2023-05-10T05:37:29;100979.20;;;9.90;48.70
50590;BME280;36547;50.514;30.840;2023-05-10T05:38:31;100975.52;;;9.94;48.70
50590;BME280;36547;50.514;30.840;2023-05-10T05:39:35;100977.13;;;9.98;49.08
50590;BME280;36547;50.514;30.840;2023-05-10T05:40:38;100988.51;;;10.02;48.86
50590;BME280;36547;50.514;30.840;2023-05-10T05:41:40;100985.75;;;10.05;48.93
50590;BME280;36547;50.514;30.840;2023-05-10T05:42:43;100977.68;;;10.08;49.09
50590;BME280;36547;50.514;30.840;2023-05-10T05:43:45;100984.59;;;10.12;49.21
50590;BME280;36547;50.514;30.840;2023-05-10T05:44:47;100979.17;;;10.15;49.35
50590;BME280;36547;50.514;30.840;2023-05-10T05:45:49;100982.63;;;10.18;49.19
50590;BME280;36547;50.514;30.840;2023-05-10T05:46:51;100981.65;;;10.21;48.67
50590;BME280;36547;50.514;30.840;2023-05-10T05:47:54;100976.28;;;10.22;48.39
50590;BME280;36547;50.514;30.840;2023-05-10T05:48:59;100980.67;;;10.23;48.28
50590;BME280;36547;50.514;30.840;2023-05-10T05:50:05;100981.55;;;10.24;48.15
50590;BME280;36547;50.514;30.840;2023-05-10T05:51:09;100983.33;;;10.23;48.00